createdAt,value
2018-12-26T00:02:01.949Z,39.70
2018-12-26T00:04:30.291Z,38.80
2018-12-26T00:06:58.621Z,42.90
2018-12-26T00:09:26.938Z,44.47
2018-12-26T00:11:55.235Z,43.17
2018-12-26T00:14:23.584Z,40.53
2018-12-26T00:16:51.882Z,40.87
2018-12-26T00:19:20.190Z,38.70
2018-12-26T00:21:48.558Z,37.57
2018-12-26T00:24:16.915Z,44.10
2018-12-26T00:26:45.526Z,40.27
2018-12-26T00:29:13.816Z,37.60
2018-12-26T00:31:42.138Z,37.53
2018-12-26T00:34:10.493Z,37.73
2018-12-26T00:36:38.796Z,41.87
2018-12-26T00:39:07.162Z,39.93
2018-12-26T00:41:35.469Z,41.50
2018-12-26T00:44:03.839Z,46.60
2018-12-26T00:46:32.214Z,38.07
2018-12-26T00:49:00.508Z,40.63
2018-12-26T00:51:28.816Z,38.80
2018-12-26T00:53:57.164Z,37.70
2018-12-26T00:56:25.465Z,38.90
2018-12-26T00:58:53.746Z,38.97
2018-12-26T01:01:22.218Z,36.93
2018-12-26T01:03:50.603Z,33.90
2018-12-26T01:06:19.053Z,38.30
2018-12-26T01:08:47.402Z,34.90
2018-12-26T01:11:15.902Z,33.57
2018-12-26T01:13:44.196Z,38.20
2018-12-26T01:16:12.588Z,31.33
2018-12-26T01:18:40.884Z,36.53
2018-12-26T01:21:09.172Z,33.63
2018-12-26T01:23:37.564Z,33.77
2018-12-26T01:26:05.926Z,35.17
2018-12-26T01:28:34.226Z,35.17
2018-12-26T01:31:02.517Z,34.23
2018-12-26T01:33:30.822Z,35.30
2018-12-26T01:35:59.177Z,41.43
2018-12-26T01:38:27.557Z,32.40
2018-12-26T01:40:55.859Z,37.60
2018-12-26T01:43:24.283Z,41.20
2018-12-26T01:45:52.589Z,38.90
2018-12-26T01:48:20.901Z,40.33
2018-12-26T01:50:49.265Z,40.63
2018-12-26T01:53:17.637Z,41.27
2018-12-26T01:55:45.935Z,40.80
2018-12-26T01:58:14.315Z,42.37
2018-12-26T02:00:42.669Z,42.33
2018-12-26T02:03:10.971Z,45.97
2018-12-26T02:05:39.348Z,43.92
2018-12-26T02:08:07.719Z,43.47
2018-12-26T02:10:36.085Z,43.17
2018-12-26T02:13:04.476Z,48.70
2018-12-26T02:15:32.835Z,45.50
2018-12-26T02:18:01.147Z,45.92
2018-12-26T02:20:29.702Z,45.07
2018-12-26T02:22:58.012Z,45.20
2018-12-26T02:25:26.304Z,47.62
2018-12-26T02:27:54.614Z,45.75
2018-12-26T02:30:23.093Z,46.45
2018-12-26T02:32:51.474Z,48.28
2018-12-26T02:35:19.834Z,46.10
2018-12-26T02:37:48.224Z,50.75
2018-12-26T02:40:16.517Z,45.63
2018-12-26T02:42:44.836Z,49.60
2018-12-26T02:45:13.140Z,42.05
2018-12-26T02:47:41.520Z,41.53
2018-12-26T02:50:09.985Z,44.00
2018-12-26T02:52:38.294Z,41.92
2018-12-26T02:55:06.768Z,43.02
2018-12-26T02:57:35.273Z,39.95
2018-12-26T03:00:05.460Z,43.25
2018-12-26T03:02:33.831Z,40.50
2018-12-26T03:05:02.142Z,39.67
2018-12-26T03:07:30.437Z,39.70
2018-12-26T03:09:58.832Z,40.23
2018-12-26T03:12:27.392Z,36.42
2018-12-26T03:14:55.719Z,35.43
2018-12-26T03:17:24.093Z,37.78
2018-12-26T03:19:52.482Z,40.27
2018-12-26T03:22:20.843Z,39.73
2018-12-26T03:24:49.163Z,38.53
2018-12-26T03:27:17.512Z,31.65
2018-12-26T03:29:45.825Z,35.50
2018-12-26T03:32:14.122Z,32.78
2018-12-26T03:34:42.507Z,33.30
2018-12-26T03:37:10.804Z,33.55
2018-12-26T03:39:39.175Z,32.27
2018-12-26T03:42:07.465Z,33.00
2018-12-26T03:44:36.609Z,32.25
2018-12-26T03:47:05.073Z,32.17
2018-12-26T03:49:33.455Z,32.45
2018-12-26T03:52:02.192Z,29.35
2018-12-26T03:54:30.639Z,28.27
2018-12-26T03:57:06.025Z,30.32
2018-12-26T03:59:29.259Z,31.10
2018-12-26T04:01:57.557Z,28.07
2018-12-26T04:04:33.341Z,30.97
2018-12-26T04:07:01.645Z,34.63
2018-12-26T04:09:30.170Z,30.52
2018-12-26T04:11:58.735Z,32.03
2018-12-26T04:14:27.045Z,31.15
2018-12-26T04:16:55.414Z,35.60
2018-12-26T04:19:23.816Z,33.58
2018-12-26T04:21:52.106Z,37.33
2018-12-26T04:24:20.502Z,35.00
2018-12-26T04:26:48.810Z,29.35
2018-12-26T04:29:17.182Z,31.80
2018-12-26T04:31:45.486Z,32.38
2018-12-26T04:34:13.872Z,34.38
2018-12-26T04:36:42.183Z,29.85
2018-12-26T04:39:10.580Z,34.48
2018-12-26T04:41:38.948Z,34.73
2018-12-26T04:44:07.598Z,32.75
2018-12-26T04:46:35.996Z,35.35
2018-12-26T04:49:04.299Z,36.75
2018-12-26T04:51:32.622Z,33.02
2018-12-26T04:54:00.912Z,32.85
2018-12-26T04:56:29.290Z,30.15
2018-12-26T04:58:57.589Z,30.70
2018-12-26T05:01:25.975Z,33.13
2018-12-26T05:03:54.411Z,32.80
2018-12-26T05:06:42.241Z,32.08
2018-12-26T05:09:10.608Z,33.45
2018-12-26T05:11:38.994Z,28.92
2018-12-26T05:14:07.358Z,30.63
2018-12-26T05:16:35.743Z,31.57
2018-12-26T05:19:04.127Z,28.23
2018-12-26T05:21:32.559Z,34.78
2018-12-26T05:24:00.867Z,31.87
2018-12-26T05:26:29.249Z,35.15
2018-12-26T05:28:57.699Z,36.65
2018-12-26T05:31:26.087Z,34.92
2018-12-26T05:33:54.469Z,33.23
2018-12-26T05:36:22.763Z,32.95
2018-12-26T05:38:51.217Z,34.08
2018-12-26T05:41:19.596Z,35.85
2018-12-26T05:43:47.919Z,34.80
2018-12-26T05:46:16.279Z,33.92
2018-12-26T05:48:44.665Z,37.33
2018-12-26T05:51:13.120Z,37.83
2018-12-26T05:53:41.649Z,35.85
2018-12-26T05:56:09.934Z,39.50
2018-12-26T05:58:38.251Z,32.83
2018-12-26T06:01:06.614Z,36.35
2018-12-26T06:03:34.934Z,35.80
2018-12-26T06:06:03.474Z,34.30
2018-12-26T06:08:31.808Z,35.98
2018-12-26T06:11:00.113Z,33.85
2018-12-26T06:13:28.557Z,36.03
2018-12-26T06:15:56.904Z,34.20
2018-12-26T06:18:25.288Z,35.52
2018-12-26T06:20:53.668Z,34.33
2018-12-26T06:23:22.056Z,36.75
2018-12-26T06:25:50.358Z,38.17
2018-12-26T06:28:18.738Z,38.13
2018-12-26T06:30:47.300Z,35.63
2018-12-26T06:33:15.606Z,38.60
2018-12-26T06:35:43.998Z,39.10
2018-12-26T06:38:12.362Z,42.43
2018-12-26T06:40:40.741Z,44.80
2018-12-26T06:43:09.034Z,44.38
2018-12-26T06:45:37.456Z,44.73
2018-12-26T06:48:05.822Z,48.10
2018-12-26T06:50:34.199Z,50.38
2018-12-26T06:53:02.501Z,46.65
2018-12-26T06:55:30.895Z,43.92
2018-12-26T06:58:00.160Z,43.77
2018-12-26T07:00:28.950Z,43.55
2018-12-26T07:02:57.247Z,39.33
2018-12-26T07:05:25.570Z,38.53
2018-12-26T07:07:53.860Z,37.38
2018-12-26T07:10:22.264Z,35.33
2018-12-26T07:12:50.719Z,33.10
2018-12-26T07:15:19.114Z,38.83
2018-12-26T07:17:47.503Z,39.15
2018-12-26T07:20:15.889Z,37.42
2018-12-26T07:22:45.736Z,39.60
2018-12-26T07:25:14.385Z,37.78
2018-12-26T07:27:43.293Z,39.30
2018-12-26T07:30:12.051Z,39.80
2018-12-26T07:32:40.438Z,40.90
2018-12-26T07:35:08.806Z,40.57
2018-12-26T07:37:37.090Z,40.48
2018-12-26T07:40:05.462Z,38.77
2018-12-26T07:42:33.766Z,37.85
2018-12-26T07:45:21.659Z,43.90
2018-12-26T07:47:50.026Z,39.37
2018-12-26T07:50:18.336Z,37.47
2018-12-26T07:52:46.820Z,40.77
2018-12-26T07:55:15.252Z,41.70
2018-12-26T07:57:43.544Z,32.73
2018-12-26T08:00:11.922Z,36.63
2018-12-26T08:02:40.220Z,39.27
2018-12-26T08:05:08.536Z,36.03
2018-12-26T08:07:36.891Z,33.80
2018-12-26T08:10:06.888Z,35.47
2018-12-26T08:12:35.272Z,37.93
2018-12-26T08:15:10.524Z,37.13
2018-12-26T08:17:33.636Z,36.27
2018-12-26T08:20:01.923Z,34.10
2018-12-26T08:22:30.306Z,33.40
2018-12-26T08:24:58.597Z,35.20
2018-12-26T08:27:26.987Z,33.47
2018-12-26T08:29:55.451Z,37.90
2018-12-26T08:32:23.763Z,36.27
2018-12-26T08:34:52.046Z,31.60
2018-12-26T08:37:20.365Z,35.33
2018-12-26T08:39:48.738Z,31.80
2018-12-26T08:42:17.165Z,33.87
2018-12-26T08:44:45.551Z,34.63
2018-12-26T08:47:13.903Z,38.37
2018-12-26T08:49:42.215Z,36.93
2018-12-26T08:52:10.500Z,35.70
2018-12-26T08:54:38.806Z,37.60
2018-12-26T08:57:07.167Z,34.80
2018-12-26T08:59:35.476Z,38.30
2018-12-26T09:02:03.764Z,35.47
2018-12-26T09:04:32.271Z,40.20
2018-12-26T09:07:00.635Z,33.60
2018-12-26T09:09:28.962Z,37.60
2018-12-26T09:11:57.410Z,36.00
2018-12-26T09:14:25.724Z,31.67
2018-12-26T09:16:54.091Z,34.43
2018-12-26T09:19:22.463Z,32.53
2018-12-26T09:21:50.835Z,36.57
2018-12-26T09:24:19.138Z,36.30
2018-12-26T09:26:47.601Z,41.07
2018-12-26T09:29:16.272Z,44.03
2018-12-26T09:31:44.640Z,44.03
2018-12-26T09:34:12.925Z,39.47
2018-12-26T09:36:41.422Z,40.27
2018-12-26T09:39:09.743Z,38.80
2018-12-26T09:41:38.127Z,40.40
2018-12-26T09:44:06.487Z,41.93
2018-12-26T09:46:34.843Z,39.70
2018-12-26T09:49:03.144Z,41.77
2018-12-26T09:51:31.431Z,40.37
2018-12-26T09:53:59.813Z,36.83
2018-12-26T09:56:28.106Z,38.40
2018-12-26T09:58:56.415Z,36.73
2018-12-26T10:01:24.699Z,38.37
2018-12-26T10:03:53.007Z,41.30
2018-12-26T10:06:21.377Z,35.23
2018-12-26T10:08:49.755Z,39.07
2018-12-26T10:11:18.051Z,40.90
2018-12-26T10:13:46.433Z,41.23
2018-12-26T10:16:14.800Z,39.57
2018-12-26T10:18:43.110Z,38.93
2018-12-26T10:21:11.396Z,36.87
2018-12-26T10:23:39.917Z,38.83
2018-12-26T10:26:08.275Z,38.37
2018-12-26T10:28:36.657Z,35.23
2018-12-26T10:31:05.020Z,35.30
2018-12-26T10:33:33.394Z,35.00
2018-12-26T10:36:01.682Z,34.33
2018-12-26T10:38:30.074Z,31.67
2018-12-26T10:40:58.438Z,35.50
2018-12-26T10:43:26.786Z,30.83
2018-12-26T10:45:55.154Z,36.43
2018-12-26T10:48:23.482Z,37.97
2018-12-26T10:50:51.776Z,32.57
2018-12-26T10:53:20.156Z,34.00
2018-12-26T10:55:48.513Z,37.63
2018-12-26T10:58:17.093Z,35.10
2018-12-26T11:00:45.454Z,32.83
2018-12-26T11:03:13.803Z,35.77
2018-12-26T11:05:42.135Z,34.67
2018-12-26T11:08:10.719Z,33.57
2018-12-26T11:10:39.091Z,31.17
2018-12-26T11:13:07.743Z,32.47
2018-12-26T11:15:36.097Z,30.47
2018-12-26T11:18:04.435Z,30.50
2018-12-26T11:20:32.787Z,36.97
2018-12-26T11:23:01.145Z,32.53
2018-12-26T11:25:29.498Z,36.33
2018-12-26T11:27:57.866Z,32.43
2018-12-26T11:30:26.188Z,36.10
2018-12-26T11:32:54.522Z,37.47
2018-12-26T11:35:22.848Z,34.23
2018-12-26T11:37:51.204Z,41.10
2018-12-26T11:40:19.573Z,35.53
2018-12-26T11:42:47.861Z,37.37
2018-12-26T11:45:16.158Z,39.23
2018-12-26T11:47:44.462Z,40.60
2018-12-26T11:50:12.849Z,33.83
2018-12-26T11:52:41.198Z,32.80
2018-12-26T11:55:09.516Z,35.17
2018-12-26T11:57:37.886Z,35.57
2018-12-26T12:00:07.720Z,35.67
2018-12-26T12:02:36.082Z,36.13
2018-12-26T12:05:05.326Z,31.70
2018-12-26T12:07:33.684Z,32.60
2018-12-26T12:10:01.992Z,34.27
2018-12-26T12:12:30.286Z,31.27
2018-12-26T12:14:58.576Z,33.13
2018-12-26T12:17:26.957Z,35.47
2018-12-26T12:19:55.246Z,35.70
2018-12-26T12:22:23.623Z,34.43
2018-12-26T12:24:51.909Z,35.00
2018-12-26T12:27:20.291Z,33.70
2018-12-26T12:29:48.597Z,32.80
2018-12-26T12:32:16.957Z,34.10
2018-12-26T12:34:45.271Z,34.97
2018-12-26T12:37:13.578Z,35.50
2018-12-26T12:39:41.956Z,39.60
2018-12-26T12:42:10.329Z,35.43
2018-12-26T12:44:38.713Z,37.77
2018-12-26T12:47:07.068Z,31.90
2018-12-26T12:49:37.198Z,34.53
2018-12-26T12:52:05.595Z,28.73
2018-12-26T12:54:33.912Z,31.73
2018-12-26T12:57:02.219Z,31.53
2018-12-26T12:59:30.522Z,30.93
2018-12-26T13:01:58.875Z,31.17
2018-12-26T13:04:27.174Z,32.50
2018-12-26T13:06:55.506Z,30.87
2018-12-26T13:09:24.087Z,34.50
2018-12-26T13:11:54.970Z,32.43
2018-12-26T13:14:22.996Z,31.67
2018-12-26T13:16:51.405Z,34.20
2018-12-26T13:19:19.790Z,30.70
2018-12-26T13:21:48.274Z,30.27
2018-12-26T13:24:17.030Z,29.20
2018-12-26T13:26:45.430Z,30.10
2018-12-26T13:29:13.942Z,28.30
2018-12-26T13:31:42.304Z,28.77
2018-12-26T13:34:11.032Z,27.47
2018-12-26T13:36:39.470Z,27.77
2018-12-26T13:39:07.831Z,25.73
2018-12-26T13:41:36.453Z,27.07
2018-12-26T13:44:04.875Z,25.60
2018-12-26T13:46:34.041Z,26.67
2018-12-26T13:49:02.658Z,26.33
2018-12-26T13:51:31.096Z,27.30
2018-12-26T13:53:59.770Z,26.97
2018-12-26T13:56:28.130Z,26.73
2018-12-26T13:58:56.410Z,28.33
2018-12-26T14:01:24.847Z,26.87
2018-12-26T14:03:54.226Z,24.13
2018-12-26T14:06:22.748Z,23.57
2018-12-26T14:08:51.842Z,24.77
2018-12-26T14:11:20.249Z,25.67
2018-12-26T14:13:49.801Z,22.30
2018-12-26T14:16:18.539Z,21.53
2018-12-26T14:18:46.902Z,24.63
2018-12-26T14:21:15.188Z,23.90
2018-12-26T14:23:43.561Z,24.10
2018-12-26T14:26:11.931Z,20.97
2018-12-26T14:28:40.251Z,21.37
2018-12-26T14:31:08.542Z,20.13
2018-12-26T14:33:36.918Z,21.90
2018-12-26T14:36:05.283Z,22.03
2018-12-26T14:38:33.648Z,21.77
2018-12-26T14:41:02.128Z,21.27
2018-12-26T14:43:30.443Z,22.13
2018-12-26T14:45:58.801Z,20.70
2018-12-26T14:48:27.172Z,18.77
2018-12-26T14:50:55.541Z,22.90
2018-12-26T14:53:23.826Z,23.50
2018-12-26T14:55:52.126Z,22.37
2018-12-26T14:58:20.496Z,24.37
2018-12-26T15:00:48.870Z,28.80
2018-12-26T15:03:17.142Z,23.33
2018-12-26T15:05:45.452Z,27.23
2018-12-26T15:08:13.818Z,24.20
2018-12-26T15:10:42.126Z,23.43
2018-12-26T15:13:10.491Z,23.97
2018-12-26T15:15:38.950Z,22.47
2018-12-26T15:18:07.375Z,22.23
2018-12-26T15:20:35.728Z,24.83
2018-12-26T15:23:04.272Z,23.90
2018-12-26T15:25:32.574Z,22.27
2018-12-26T15:28:00.902Z,24.70
2018-12-26T15:30:29.272Z,22.33
2018-12-26T15:32:57.564Z,23.67
2018-12-26T15:35:25.943Z,21.83
2018-12-26T15:37:54.336Z,22.33
2018-12-26T15:40:22.701Z,21.57
2018-12-26T15:42:51.218Z,25.30
2018-12-26T15:45:19.615Z,24.97
2018-12-26T15:47:47.999Z,25.50
2018-12-26T15:50:16.280Z,23.83
2018-12-26T15:52:44.737Z,25.17
2018-12-26T15:55:13.098Z,31.23
2018-12-26T15:57:41.489Z,25.57
2018-12-26T16:00:10.300Z,23.77
2018-12-26T16:02:38.685Z,25.70
2018-12-26T16:05:07.567Z,28.43
2018-12-26T16:07:35.990Z,26.70
2018-12-26T16:10:05.811Z,25.77
2018-12-26T16:12:34.290Z,25.07
2018-12-26T16:15:02.671Z,23.93
2018-12-26T16:17:31.054Z,26.67
2018-12-26T16:19:59.516Z,26.20
2018-12-26T16:22:27.881Z,29.27
2018-12-26T16:24:56.201Z,26.37
2018-12-26T16:27:24.557Z,28.43
2018-12-26T16:29:53.028Z,28.93
2018-12-26T16:32:21.631Z,24.83
2018-12-26T16:34:50.111Z,28.53
2018-12-26T16:37:18.800Z,26.40
2018-12-26T16:39:47.174Z,25.53
2018-12-26T16:42:16.903Z,28.90
2018-12-26T16:44:45.744Z,26.47
2018-12-26T16:47:14.106Z,25.90
2018-12-26T16:49:42.491Z,28.40
2018-12-26T16:52:10.870Z,24.30
2018-12-26T16:54:39.239Z,26.27
2018-12-26T16:57:07.720Z,27.37
2018-12-26T16:59:36.074Z,25.90
2018-12-26T17:02:04.359Z,28.00
2018-12-26T17:04:32.669Z,26.97
2018-12-26T17:07:01.037Z,27.10
2018-12-26T17:09:29.513Z,32.00
2018-12-26T17:11:57.884Z,26.37
2018-12-26T17:14:26.405Z,25.97
2018-12-26T17:16:54.700Z,26.00
2018-12-26T17:19:23.122Z,27.97
2018-12-26T17:21:51.485Z,27.20
2018-12-26T17:24:19.867Z,26.07
2018-12-26T17:26:48.209Z,25.93
2018-12-26T17:29:16.573Z,26.20
2018-12-26T17:31:45.106Z,27.90
2018-12-26T17:34:13.470Z,27.60
2018-12-26T17:36:41.909Z,33.03
2018-12-26T17:39:10.278Z,27.07
2018-12-26T17:41:38.755Z,26.40
2018-12-26T17:44:07.081Z,28.20
2018-12-26T17:46:35.461Z,26.90
2018-12-26T17:49:03.769Z,28.37
2018-12-26T17:51:32.134Z,24.30
2018-12-26T17:54:06.687Z,28.27
2018-12-26T17:56:41.280Z,28.60
2018-12-26T17:59:30.848Z,25.67
2018-12-26T18:02:04.903Z,30.83
2018-12-26T18:04:33.215Z,32.53
2018-12-26T18:07:01.583Z,29.93
2018-12-26T18:09:29.948Z,29.27
2018-12-26T18:12:11.253Z,27.77
2018-12-26T18:14:28.255Z,25.97
2018-12-26T18:16:56.540Z,32.00
2018-12-26T18:19:24.831Z,31.57
2018-12-26T18:21:53.214Z,31.50
2018-12-26T18:24:21.523Z,31.93
2018-12-26T18:26:49.932Z,34.13
2018-12-26T18:29:18.247Z,34.23
2018-12-26T18:31:46.556Z,34.87
2018-12-26T18:34:15.002Z,35.70
2018-12-26T18:36:43.374Z,36.07
2018-12-26T18:39:11.744Z,35.23
2018-12-26T18:41:40.046Z,30.07
2018-12-26T18:44:08.402Z,35.37
2018-12-26T18:46:36.817Z,34.77
2018-12-26T18:49:05.166Z,31.60
2018-12-26T18:51:33.671Z,35.57
2018-12-26T18:54:02.029Z,39.23
2018-12-26T18:56:30.420Z,34.27
2018-12-26T18:58:58.818Z,33.87
2018-12-26T19:01:30.749Z,35.67
2018-12-26T19:03:57.333Z,32.80
2018-12-26T19:06:25.710Z,29.43
2018-12-26T19:08:53.992Z,30.73
2018-12-26T19:11:22.375Z,28.33
2018-12-26T19:13:50.748Z,30.27
2018-12-26T19:16:19.059Z,31.67
2018-12-26T19:18:47.431Z,30.97
2018-12-26T19:21:15.805Z,29.13
2018-12-26T19:23:44.090Z,29.13
2018-12-26T19:26:12.408Z,37.90
2018-12-26T19:28:40.942Z,33.47
2018-12-26T19:31:09.316Z,33.33
2018-12-26T19:33:37.694Z,35.57
2018-12-26T19:36:06.001Z,32.53
2018-12-26T19:38:34.532Z,33.37
2018-12-26T19:41:02.932Z,32.33
2018-12-26T19:43:31.288Z,32.53
2018-12-26T19:45:59.689Z,31.87
2018-12-26T19:48:28.314Z,32.20
2018-12-26T19:50:56.982Z,34.13
2018-12-26T19:53:26.791Z,33.10
2018-12-26T19:55:55.126Z,33.43
2018-12-26T19:58:23.496Z,31.00
2018-12-26T20:00:51.784Z,33.20
2018-12-26T20:03:20.164Z,32.97
2018-12-26T20:05:48.464Z,33.70
2018-12-26T20:08:16.773Z,35.90
2018-12-26T20:10:45.074Z,33.73
2018-12-26T20:13:13.634Z,38.60
2018-12-26T20:15:42.079Z,38.93
2018-12-26T20:18:10.586Z,36.77
2018-12-26T20:20:38.951Z,39.13
2018-12-26T20:23:07.399Z,35.80
2018-12-26T20:25:35.699Z,36.47
2018-12-26T20:28:03.980Z,34.60
2018-12-26T20:30:32.292Z,36.53
2018-12-26T20:33:00.585Z,34.13
2018-12-26T20:35:28.941Z,40.07
2018-12-26T20:37:57.259Z,41.13
2018-12-26T20:40:25.683Z,32.83
2018-12-26T20:42:53.999Z,33.60
2018-12-26T20:45:22.289Z,33.33
2018-12-26T20:47:50.593Z,30.13
2018-12-26T20:50:18.885Z,31.43
2018-12-26T20:52:47.265Z,35.77
2018-12-26T20:55:15.745Z,31.47
2018-12-26T20:57:44.107Z,32.60
2018-12-26T21:00:12.547Z,32.50
2018-12-26T21:02:40.987Z,33.10
2018-12-26T21:05:09.352Z,40.83
2018-12-26T21:07:37.656Z,32.87
2018-12-26T21:10:07.576Z,31.27
2018-12-26T21:12:35.868Z,34.23
2018-12-26T21:15:05.277Z,31.87
2018-12-26T21:17:33.617Z,33.03
2018-12-26T21:20:02.888Z,32.73
2018-12-26T21:22:32.106Z,38.73
2018-12-26T21:25:00.600Z,34.07
2018-12-26T21:27:29.170Z,33.27
2018-12-26T21:29:57.731Z,30.77
2018-12-26T21:32:26.316Z,31.07
2018-12-26T21:34:55.253Z,32.33
2018-12-26T21:37:25.552Z,32.63
2018-12-26T21:39:54.065Z,30.67
2018-12-26T21:42:23.130Z,34.73
2018-12-26T21:44:52.300Z,30.10
2018-12-26T21:47:20.869Z,30.13
2018-12-26T21:49:49.182Z,28.40
2018-12-26T21:52:18.289Z,29.70
2018-12-26T21:54:46.891Z,32.77
2018-12-26T21:57:16.104Z,33.60
2018-12-26T21:59:44.875Z,33.43
2018-12-26T22:02:32.952Z,31.30
2018-12-26T22:05:05.396Z,32.93
2018-12-26T22:07:39.702Z,34.97
2018-12-26T22:10:08.930Z,32.90
2018-12-26T22:12:37.343Z,31.77
2018-12-26T22:15:06.760Z,35.70
2018-12-26T22:17:35.421Z,31.63
2018-12-26T22:20:04.924Z,31.47
2018-12-26T22:22:33.401Z,31.83
2018-12-26T22:25:01.876Z,33.60
2018-12-26T22:27:30.593Z,34.90
2018-12-26T22:30:00.603Z,32.03
2018-12-26T22:32:30.752Z,33.27
2018-12-26T22:34:59.117Z,35.30
2018-12-26T22:37:29.267Z,32.00
2018-12-26T22:39:59.636Z,30.27
2018-12-26T22:42:28.043Z,34.17
2018-12-26T22:44:56.425Z,30.73
2018-12-26T22:47:24.786Z,29.40
2018-12-26T22:49:53.308Z,36.80
2018-12-26T22:52:21.636Z,30.80
2018-12-26T22:54:50.020Z,32.07
2018-12-26T22:57:18.523Z,32.20
2018-12-26T22:59:47.239Z,28.43
2018-12-26T23:02:15.567Z,29.47
2018-12-26T23:04:43.946Z,30.30
2018-12-26T23:07:12.234Z,31.93
2018-12-26T23:09:40.542Z,32.40
2018-12-26T23:12:08.831Z,31.57
2018-12-26T23:14:37.227Z,29.63
2018-12-26T23:17:05.599Z,32.40
2018-12-26T23:19:33.917Z,29.60
2018-12-26T23:22:02.212Z,30.27
2018-12-26T23:24:30.596Z,30.77
2018-12-26T23:26:58.907Z,29.83
2018-12-26T23:29:27.281Z,30.43
2018-12-26T23:31:55.636Z,30.93
2018-12-26T23:34:24.090Z,29.23
2018-12-26T23:36:52.465Z,27.20
2018-12-26T23:39:20.771Z,27.93
2018-12-26T23:41:49.261Z,29.40
2018-12-26T23:44:17.584Z,32.03
2018-12-26T23:46:45.885Z,29.50
2018-12-26T23:49:14.238Z,32.07
2018-12-26T23:51:42.622Z,28.60
2018-12-26T23:54:11.217Z,26.80
2018-12-26T23:56:39.529Z,27.67
2018-12-26T23:59:07.893Z,27.83
